KWP weather

Public forecast

Using degrees Fahrenheit for public forecast. Weather courtesy of forecast.io.

Closest aviation weather report (METAR) to West Point Village Seaplane Base

Closest report is Kodiak Airport, 33.8 nm (62.6 km) E. Retrieved 2020/08/12 17:53 UTC (12 minutes ago):

PADQ 121753Z 00000KT 10SM CLR 12/08 A2996

Closest aviation forecast (TAF) to West Point Village Seaplane Base

Closest forecast is Kodiak Airport, 33.8 nm (62.6 km) E. Retrieved 2020/08/12 18:30 UTC (0 seconds ago):

TAF PADQ 121728Z 1218/1318 VRB06KT P6SM BKN150